Mobile Site You Are Here >  >  >  > Bubba Starling 2013 Minor League Gamelogs & Splits


Bubba Starling

Derek Starling

Position: Outfielder
Bats: Right, Throws: Right
Height: 6' 4", Weight: 180 lb.

Born: August 3, 1992 in Gardner, Kansas, US
High School: Gardner-Edgerton HS (Gardner, KS)

Drafted by the Kansas City Royals in the 1st round (5th) of the 2011 MLB June Amateur Draft from Gardner-Edgerton HS (Gardner, KS).

Prospect Ratings by Baseball America:
Pre-2012: Rated #24 Prospect
Pre-2013: Rated #35 Prospect
Prospect Ratings by MLB.com:
Pre-2012: Rated #17 Prospect
Pre-2013: Rated #26 Prospect
Prospect Ratings by BaseballProspectus.com:
Pre-2012: Rated #27 Prospect
Pre-2013: Rated #49 Prospect
Bubba Starling
/ Gamelogs & Splits
 Batting: 2014 / 2013 / 2012

2013 Player Batting Gamelog

Rk Date Lev Tm   Opp PA AB R H 2B 3B HR RBI BB IBB SO HBP SH SF GDP SB CS Pos E
1 2013-04-05 A-SALL Lexington Legends @ Augusta GreenJackets 4 4 0 1 0 0 0 0 0 0 3 0 0 0 0 0 0 CF 1
2 2013-04-06 A-SALL Lexington Legends @ Augusta GreenJackets 3 3 0 0 0 0 0 0 0 0 1 0 0 0 0 0 0 0
3 2013-04-06 (2) A-SALL Lexington Legends @ Augusta GreenJackets 3 2 0 0 0 0 0 0 1 0 1 0 0 0 0 0 0 CF 0
4 2013-04-07 A-SALL Lexington Legends @ Augusta GreenJackets 4 3 2 0 0 0 0 0 1 0 2 0 0 0 0 0 0 CF 0
5 2013-04-08 A-SALL Lexington Legends Asheville Tourists 4 4 0 0 0 0 0 0 0 0 1 0 0 0 0 0 0 CF 0
6 2013-04-09 A-SALL Lexington Legends Asheville Tourists 6 6 0 0 0 0 0 0 0 0 1 0 0 0 0 0 0 CF 0
7 2013-04-10 A-SALL Lexington Legends Asheville Tourists 4 4 0 1 0 0 0 0 0 0 2 0 0 0 0 0 0 CF 1
8 2013-04-12 A-SALL Lexington Legends Greenville Drive 3 3 1 1 0 0 1 1 0 0 1 0 0 0 0 0 0 CF 0
9 2013-04-12 (2) A-SALL Lexington Legends Greenville Drive 3 3 0 0 0 0 0 0 0 0 3 0 0 0 0 0 0 CF 0
10 2013-04-14 A-SALL Lexington Legends Greenville Drive 4 4 1 2 1 0 0 1 0 0 0 0 0 0 0 0 0 CF 0
11 2013-04-15 A-SALL Lexington Legends @ Augusta GreenJackets 4 3 0 0 0 0 0 0 0 0 1 1 0 0 0 0 0 CF 0
12 2013-04-16 A-SALL Lexington Legends @ Augusta GreenJackets 4 4 0 0 0 0 0 0 0 0 2 0 0 0 0 0 0 CF 0
13 2013-04-17 A-SALL Lexington Legends @ Augusta GreenJackets 6 6 1 2 1 0 0 0 0 0 4 0 0 0 0 0 0 CF 0
14 2013-04-18 A-SALL Lexington Legends Greenville Drive 5 4 1 0 0 0 0 0 1 0 1 0 0 0 0 1 0 CF 0
15 2013-04-19 A-SALL Lexington Legends Greenville Drive 4 3 1 1 1 0 0 1 1 0 1 0 0 0 0 0 0 CF 0
16 2013-04-20 A-SALL Lexington Legends Greenville Drive 3 3 0 0 0 0 0 0 0 0 1 0 0 0 0 0 0 CF 0
17 2013-04-21 A-SALL Lexington Legends Greenville Drive 5 5 2 2 0 0 1 1 0 0 1 0 0 0 0 0 0 CF 0
18 2013-04-23 A-SALL Lexington Legends @ Asheville Tourists 4 4 0 2 1 0 0 2 0 0 0 0 0 0 1 0 0 CF 0
19 2013-04-24 A-SALL Lexington Legends @ Asheville Tourists 4 4 0 0 0 0 0 0 0 0 2 0 0 0 1 0 0 CF 0
20 2013-04-26 A-SALL Lexington Legends Augusta GreenJackets 4 3 0 0 0 0 0 0 1 0 1 0 0 0 0 0 0 0
21 2013-04-27 A-SALL Lexington Legends Augusta GreenJackets 5 5 1 2 0 0 0 3 0 0 1 0 0 0 0 0 0 CF 0
22 2013-04-28 A-SALL Lexington Legends Augusta GreenJackets 5 3 2 1 0 0 1 1 2 1 1 0 0 0 0 0 0 CF 0
23 2013-04-29 A-SALL Lexington Legends Augusta GreenJackets 4 4 1 2 0 0 1 2 0 0 1 0 0 0 0 0 0 CF 0
24 2013-05-01 A-SALL Lexington Legends @ Delmarva Shorebirds 4 4 1 1 0 0 0 0 0 0 2 0 0 0 0 1 0 CF 0
25 2013-05-02 A-SALL Lexington Legends @ Delmarva Shorebirds 5 4 1 1 0 0 0 0 1 0 1 0 0 0 0 0 0 CF 0
26 2013-05-03 A-SALL Lexington Legends @ Delmarva Shorebirds 5 5 0 2 0 0 0 2 0 0 1 0 0 0 0 0 0 CF 0
27 2013-05-04 A-SALL Lexington Legends @ Lakewood BlueClaws 5 5 0 0 0 0 0 0 0 0 1 0 0 0 0 0 0 CF 0
28 2013-05-05 A-SALL Lexington Legends @ Lakewood BlueClaws 5 3 2 1 1 0 0 1 1 0 0 1 0 0 0 2 0 CF 0
29 2013-05-06 A-SALL Lexington Legends @ Lakewood BlueClaws 4 4 0 1 0 0 0 0 0 0 0 0 0 0 0 0 0 CF 0
30 2013-05-07 A-SALL Lexington Legends @ Lakewood BlueClaws 4 4 0 0 0 0 0 0 0 0 1 0 0 0 0 0 0 0
31 2013-05-09 A-SALL Lexington Legends West Virginia Power 3 3 0 1 0 0 0 0 0 0 0 0 0 0 0 1 0 CF 0
32 2013-05-11 A-SALL Lexington Legends West Virginia Power 3 2 1 1 1 0 0 0 1 0 1 0 0 0 0 0 0 CF 0
33 2013-05-11 (2) A-SALL Lexington Legends West Virginia Power 3 3 0 1 0 0 0 1 0 0 2 0 0 0 0 0 0 CF 0
34 2013-05-12 A-SALL Lexington Legends West Virginia Power 4 3 0 1 0 0 0 1 0 0 0 1 0 0 0 0 0 CF 0
35 2013-05-20 A-SALL Lexington Legends Asheville Tourists 4 4 0 2 1 0 0 1 0 0 1 0 0 0 0 0 0 CF 0
36 2013-05-21 A-SALL Lexington Legends Asheville Tourists 4 4 1 0 0 0 0 0 0 0 1 0 0 0 0 0 0 CF 0
37 2013-05-22 A-SALL Lexington Legends Asheville Tourists 4 3 1 0 0 0 0 0 1 0 2 0 0 0 0 0 0 CF 0
38 2013-05-23 A-SALL Lexington Legends @ Hagerstown Suns 4 4 0 1 1 0 0 0 0 0 1 0 0 0 1 0 0 CF 0
39 2013-05-24 A-SALL Lexington Legends @ Hagerstown Suns 4 3 0 0 0 0 0 0 1 0 2 0 0 0 1 0 0 CF 0
40 2013-05-25 A-SALL Lexington Legends @ Hagerstown Suns 5 3 2 1 0 0 0 1 2 0 1 0 0 0 0 1 0 CF 0
41 2013-05-26 A-SALL Lexington Legends @ Hagerstown Suns 5 4 1 1 0 0 0 1 1 0 0 0 0 0 0 1 0 CF 0
42 2013-05-27 A-SALL Lexington Legends Kannapolis Intimidators 4 3 0 0 0 0 0 0 1 0 2 0 0 0 0 0 0 CF 0
43 2013-05-28 A-SALL Lexington Legends Kannapolis Intimidators 4 4 1 1 0 0 1 1 0 0 2 0 0 0 0 0 0 CF 0
44 2013-05-29 A-SALL Lexington Legends Kannapolis Intimidators 0 0 0 0 0 0 0 0 0 0 0 0 0 0 0 0 0 0
45 2013-05-30 A-SALL Lexington Legends Hagerstown Suns 4 4 1 1 0 0 1 2 0 0 3 0 0 0 0 0 0 CF 0
46 2013-05-31 A-SALL Lexington Legends Hagerstown Suns 4 4 0 1 0 0 0 0 0 0 0 0 0 0 0 0 1 CF 0
47 2013-06-01 A-SALL Lexington Legends Hagerstown Suns 4 4 0 0 0 0 0 0 0 0 1 0 0 0 1 0 0 CF 0
48 2013-06-02 A-SALL Lexington Legends Hagerstown Suns 4 4 1 1 0 1 0 1 0 0 1 0 0 0 0 0 0 0
49 2013-06-04 A-SALL Lexington Legends @ Savannah Sand Gnats 4 4 0 1 0 0 0 1 0 0 0 0 0 0 0 0 0 CF 0
50 2013-06-05 A-SALL Lexington Legends @ Savannah Sand Gnats 5 5 0 1 0 0 0 1 0 0 0 0 0 0 0 0 0 CF 0
51 2013-06-07 A-SALL Lexington Legends @ Augusta GreenJackets 4 3 0 0 0 0 0 0 1 0 1 0 0 0 0 0 0 CF 0
52 2013-06-08 A-SALL Lexington Legends @ Augusta GreenJackets 5 5 1 2 0 0 0 1 0 0 3 0 0 0 0 0 0 CF 0
53 2013-06-10 A-SALL Lexington Legends Rome Braves 4 4 1 1 0 0 1 1 0 0 2 0 0 0 0 0 0 CF 0
54 2013-06-11 A-SALL Lexington Legends Rome Braves 4 2 1 0 0 0 0 0 2 0 2 0 0 0 0 0 0 CF 0
55 2013-06-12 A-SALL Lexington Legends Rome Braves 4 3 1 0 0 0 0 0 1 0 1 0 0 0 0 0 0 CF 0
56 2013-06-13 A-SALL Lexington Legends @ Asheville Tourists 4 4 0 0 0 0 0 0 0 0 1 0 0 0 0 0 0 CF 0
57 2013-06-14 A-SALL Lexington Legends @ Asheville Tourists 4 3 0 0 0 0 0 0 1 0 2 0 0 0 0 0 0 CF 0
58 2013-06-15 A-SALL Lexington Legends @ Asheville Tourists 4 3 0 0 0 0 0 0 1 0 1 0 0 0 0 0 0 CF 0
59 2013-06-16 A-SALL Lexington Legends @ Asheville Tourists 6 5 0 5 1 0 0 1 0 0 0 1 0 0 0 1 0 CF 0
60 2013-06-20 A-SALL Lexington Legends Savannah Sand Gnats 4 4 0 1 1 0 0 1 0 0 3 0 0 0 0 0 0 CF 0
61 2013-06-21 A-SALL Lexington Legends Savannah Sand Gnats 4 3 0 1 0 0 0 1 0 0 0 0 0 1 0 0 0 CF 0
62 2013-06-22 A-SALL Lexington Legends Savannah Sand Gnats 4 3 1 1 1 0 0 1 1 0 0 0 0 0 0 1 0 CF 0
63 2013-06-23 A-SALL Lexington Legends Savannah Sand Gnats 4 4 0 2 0 0 0 1 0 0 1 0 0 0 0 0 0 CF 0
64 2013-06-24 A-SALL Lexington Legends @ Hickory Crawdads 4 4 0 1 1 0 0 0 0 0 2 0 0 0 0 0 0 CF 0
65 2013-06-25 A-SALL Lexington Legends @ Hickory Crawdads 4 3 0 0 0 0 0 0 1 0 0 0 0 0 0 0 0 CF 0
66 2013-06-26 A-SALL Lexington Legends @ Hickory Crawdads 4 3 0 0 0 0 0 0 1 0 2 0 0 0 0 0 0 CF 0
67 2013-06-27 A-SALL Lexington Legends @ Hagerstown Suns 4 4 1 2 0 0 0 0 0 0 0 0 0 0 0 0 0 CF 0
68 2013-06-28 A-SALL Lexington Legends @ Hagerstown Suns 4 3 0 1 0 0 0 1 0 0 1 0 0 1 0 0 0 CF 0
69 2013-06-29 A-SALL Lexington Legends @ Hagerstown Suns 3 1 1 1 1 0 0 1 1 0 0 0 0 1 0 0 0 CF 0
70 2013-06-30 A-SALL Lexington Legends @ Hagerstown Suns 3 3 0 0 0 0 0 0 0 0 0 0 0 0 0 0 0 CF 0
71 2013-07-02 A-SALL Lexington Legends Greenville Drive 3 3 0 1 0 0 0 0 0 0 0 0 0 0 1 0 0 CF 0
72 2013-07-02 (2) A-SALL Lexington Legends Greenville Drive 4 4 0 2 1 0 0 3 0 0 1 0 0 0 0 0 0 CF 0
73 2013-07-03 A-SALL Lexington Legends Greenville Drive 4 3 2 1 0 0 1 2 1 0 0 0 0 0 0 0 0 CF 0
74 2013-07-04 A-SALL Lexington Legends @ West Virginia Power 5 4 0 0 0 0 0 0 1 0 3 0 0 0 0 0 0 CF 0
75 2013-07-05 A-SALL Lexington Legends @ West Virginia Power 4 3 0 0 0 0 0 0 1 0 0 0 0 0 0 0 0 CF 0
76 2013-07-06 A-SALL Lexington Legends @ West Virginia Power 4 3 0 0 0 0 0 0 1 0 1 0 0 0 0 0 0 CF 0
77 2013-07-09 A-SALL Lexington Legends Greensboro Grasshoppers 4 3 0 0 0 0 0 0 1 0 0 0 0 0 0 0 0 0
78 2013-07-10 A-SALL Lexington Legends Greensboro Grasshoppers 4 4 0 0 0 0 0 0 0 0 1 0 0 0 0 0 0 CF 0
79 2013-07-11 A-SALL Lexington Legends Greensboro Grasshoppers 4 4 0 0 0 0 0 0 0 0 0 0 0 0 0 0 0 CF 0
80 2013-07-12 A-SALL Lexington Legends Delmarva Shorebirds 6 3 0 0 0 0 0 0 3 0 1 0 0 0 0 1 0 CF 0
81 2013-07-13 A-SALL Lexington Legends Delmarva Shorebirds 4 4 1 1 0 0 0 0 0 0 0 0 0 0 0 0 0 CF 0
82 2013-07-14 A-SALL Lexington Legends Delmarva Shorebirds 4 3 1 1 0 0 0 1 1 0 0 0 0 0 0 0 0 CF 0
83 2013-07-15 A-SALL Lexington Legends Delmarva Shorebirds 4 4 0 0 0 0 0 0 0 0 2 0 0 0 0 0 0 CF 0
84 2013-07-17 A-SALL Lexington Legends @ Rome Braves 5 4 2 3 0 0 0 0 1 0 1 0 0 0 0 1 0 CF 0
85 2013-07-18 A-SALL Lexington Legends @ Rome Braves 4 3 2 0 0 0 0 0 1 0 0 0 0 0 0 1 0 CF 0
86 2013-07-19 A-SALL Lexington Legends @ Rome Braves 4 3 0 0 0 0 0 0 1 0 2 0 0 0 0 2 0 CF 0
87 2013-07-20 A-SALL Lexington Legends @ Greenville Drive 4 3 0 2 1 0 0 1 0 0 0 0 0 1 0 1 0 CF 0
88 2013-07-21 A-SALL Lexington Legends @ Greenville Drive 4 2 0 0 0 0 0 0 2 0 0 0 0 0 0 0 1 CF 0
89 2013-07-22 A-SALL Lexington Legends @ Greenville Drive 5 5 0 1 0 0 0 1 0 0 1 0 0 0 0 1 0 CF 0
90 2013-07-25 A-SALL Lexington Legends West Virginia Power 4 4 0 1 0 0 0 0 0 0 1 0 0 0 0 0 0 CF 0
91 2013-07-26 A-SALL Lexington Legends West Virginia Power 4 4 1 2 0 0 1 1 0 0 0 0 0 0 0 0 0 CF 0
92 2013-07-27 A-SALL Lexington Legends West Virginia Power 3 3 0 0 0 0 0 0 0 0 1 0 0 0 0 0 0 CF 0
93 2013-07-27 (2) A-SALL Lexington Legends West Virginia Power 3 3 0 2 1 0 0 1 0 0 0 0 0 0 0 0 0 CF 0
94 2013-07-28 A-SALL Lexington Legends West Virginia Power 5 5 1 2 0 0 0 3 0 0 1 0 0 0 0 0 0 CF 0
95 2013-07-29 A-SALL Lexington Legends @ Kannapolis Intimidators 4 3 0 1 1 0 0 0 1 0 1 0 0 0 0 1 0 CF 0
96 2013-07-30 A-SALL Lexington Legends @ Kannapolis Intimidators 4 3 0 0 0 0 0 0 1 0 1 0 0 0 0 1 0 CF 0
97 2013-07-31 A-SALL Lexington Legends @ Kannapolis Intimidators 4 4 0 1 0 0 0 0 0 0 1 0 0 0 0 0 0 CF 0
98 2013-08-01 A-SALL Lexington Legends @ Rome Braves 5 3 0 2 1 0 0 2 1 0 0 1 0 0 0 0 0 CF 0
99 2013-08-02 A-SALL Lexington Legends @ Rome Braves 4 3 0 0 0 0 0 0 1 0 0 0 0 0 1 0 0 CF 0
100 2013-08-03 A-SALL Lexington Legends @ Rome Braves 4 3 0 0 0 0 0 0 1 0 2 0 0 0 0 0 0 CF 0
101 2013-08-04 A-SALL Lexington Legends @ Rome Braves 3 3 0 0 0 0 0 0 0 0 0 0 0 0 0 0 0 CF 0
102 2013-08-05 A-SALL Lexington Legends Asheville Tourists 4 4 1 3 1 0 0 1 0 0 0 0 0 0 0 0 0 CF 0
103 2013-08-06 A-SALL Lexington Legends Asheville Tourists 4 3 1 2 0 0 0 0 1 0 1 0 0 0 0 1 0 CF 0
104 2013-08-07 A-SALL Lexington Legends Asheville Tourists 4 4 0 1 0 0 0 1 0 0 1 0 0 0 0 1 0 CF 0
105 2013-08-08 A-SALL Lexington Legends Hagerstown Suns 4 4 0 1 0 0 0 0 0 0 2 0 0 0 0 0 0 CF 0
106 2013-08-09 A-SALL Lexington Legends Hagerstown Suns 3 3 1 2 1 0 1 3 0 0 1 0 0 0 0 0 0 CF 0
107 2013-08-10 A-SALL Lexington Legends Hagerstown Suns 1 0 1 0 0 0 0 0 1 0 0 0 0 0 0 1 0 CF 0
108 2013-08-15 A-SALL Lexington Legends @ Charleston RiverDogs 3 3 0 1 0 0 0 0 0 0 1 0 0 0 0 0 0 CF 0
109 2013-08-15 (2) A-SALL Lexington Legends @ Charleston RiverDogs 3 3 1 2 0 2 0 2 0 0 0 0 0 0 0 0 0 CF 0
110 2013-08-16 A-SALL Lexington Legends @ Greenville Drive 4 3 0 0 0 0 0 0 1 0 2 0 0 0 0 0 0 CF 0
111 2013-08-18 A-SALL Lexington Legends @ Greenville Drive 4 4 0 0 0 0 0 0 0 0 2 0 0 0 0 0 0 CF 0
112 2013-08-19 A-SALL Lexington Legends @ Greenville Drive 4 3 0 0 0 0 0 0 1 0 3 0 0 0 0 0 0 CF 0
113 2013-08-20 A-SALL Lexington Legends Augusta GreenJackets 4 4 0 1 0 0 0 0 0 0 1 0 0 0 0 0 0 CF 1
114 2013-08-21 A-SALL Lexington Legends Augusta GreenJackets 5 5 0 2 0 1 0 0 0 0 3 0 0 0 0 0 0 CF 0
115 2013-08-22 A-SALL Lexington Legends Augusta GreenJackets 6 5 0 3 1 0 0 1 1 0 1 0 0 0 0 0 0 CF 0
116 2013-08-23 A-SALL Lexington Legends Greenville Drive 4 4 1 2 0 0 1 1 0 0 1 0 0 0 0 0 0 CF 0
117 2013-08-24 A-SALL Lexington Legends Greenville Drive 4 4 0 1 0 0 0 0 0 0 1 0 0 0 0 0 0 CF 0
118 2013-08-25 A-SALL Lexington Legends Greenville Drive 4 4 1 2 0 0 1 1 0 0 1 0 0 0 1 0 0 CF 0
119 2013-08-27 A-SALL Lexington Legends @ Augusta GreenJackets 4 4 0 1 0 0 0 0 0 0 3 0 0 0 0 0 0 CF 0
120 2013-08-28 A-SALL Lexington Legends @ Augusta GreenJackets 5 5 1 2 0 0 1 3 0 0 0 0 0 0 0 0 0 CF 0
121 2013-08-29 A-SALL Lexington Legends @ Augusta GreenJackets 4 3 0 0 0 0 0 0 1 0 0 0 0 0 0 0 0 CF 0
122 2013-08-31 A-SALL Lexington Legends West Virginia Power 4 3 0 0 0 0 0 0 1 0 0 0 0 0 0 1 0 0
123 2013-09-01 A-SALL Lexington Legends West Virginia Power 3 3 0 0 0 0 0 0 0 0 3 0 0 0 0 0 0 CF 0
124 2013-09-02 A-SALL Lexington Legends West Virginia Power 2 0 0 0 0 0 0 0 1 0 0 1 0 0 0 0 0 CF 0

2013 Player Batting Splits

Split G PA AB R H 2B 3B HR RBI SB CS BB SO BA OBP SLG OPS TB GDP HBP SH SF IBB
Total 124 498 435 51 105 21 4 13 63 22 2 53 128 .241 .329 .398 .727 173 8 6 0 4 1
Home 65 252 226 32 61 11 2 12 41 8 1 23 65 .270 .341 .496 .837 112 3 2 0 1 1
Away 59 246 209 19 44 10 2 1 22 14 1 30 63 .211 .317 .292 .609 61 5 4 0 3 0
vs RHP as RHB 118 398 346 82 13 4 11 50 45 103 .237 .329 .393 .722 136 6 4 0 3 1
vs LHP as RHB 52 100 89 23 8 0 2 13 8 25 .258 .330 .416 .746 37 2 2 0 1 0
April 23 95 87 13 17 4 0 4 12 1 0 7 32 .195 .263 .379 .642 33 2 1 0 0 1
May 23 91 80 12 18 4 0 2 11 6 1 9 24 .225 .319 .350 .669 28 2 2 0 0 0
June 24 98 84 8 21 5 1 1 12 2 0 10 24 .250 .327 .369 .696 31 1 1 0 3 0
July 27 111 94 10 21 4 0 2 13 9 1 16 19 .223 .333 .330 .663 31 1 0 0 1 0
August 25 98 87 8 28 4 3 4 15 4 0 10 26 .322 .398 .575 .973 50 2 1 0 0 0
September 2 5 3 0 0 0 0 0 0 0 0 1 3 .000 .400 .000 .400 0 0 1 0 0 0
2 outs, RISP 71 96 84 25 7 0 3 28 10 25 .298 .385 .488 .874 41 0 2 0 0 0
vs. Younger Pitchers 34 84 71 21 5 1 2 10 10 14 .296 .393 .479 .872 34 1 2 0 1 0
vs. Older Pitchers 117 406 357 83 16 3 11 53 42 111 .232 .318 .387 .704 138 7 4 0 3 1
Please note that splits include both major and minor league stats. We have decided that the splits across all levels is more useful than just minor league stats.

About the Minor League Data

Performance data on minor and international leagues is licensed from and provided by the SABR Minor Leagues Database, a community project sponsored by the Minor Leagues Committee of the Society for American Baseball Research.

The database is under active development. Many statistics are incomplete due to ongoing research and/or limitations in published sources. To learn more about these limitations, or to find out how to contribute, click here.

Minor league Total Zone (Rctch&Rtz, 2005-2009) data provided by Baseballprojection.com and Minorleaguesplits.com.